sensor_id;sensor_type;location;lat;lon;timestamp;pressure;altitude;pressure_sealevel;temperature;humidity
79316;BME280;68779;50.036;19.964;2023-07-22T00:26:14;101179.52;;;19.42;77.69
79316;BME280;68779;50.036;19.964;2023-07-22T00:56:32;101159.41;;;19.48;78.27
79316;BME280;68779;50.036;19.964;2023-07-22T01:26:47;101109.98;;;19.47;78.02
79316;BME280;68779;50.036;19.964;2023-07-22T01:57:01;101132.34;;;19.23;77.58
79316;BME280;68779;50.036;19.964;2023-07-22T02:27:14;101159.92;;;19.37;78.08
79316;BME280;68779;50.036;19.964;2023-07-22T02:57:28;101181.23;;;18.85;77.68
79316;BME280;68779;50.036;19.964;2023-07-22T03:27:42;101195.98;;;18.77;78.38
79316;BME280;68779;50.036;19.964;2023-07-22T03:57:55;101204.58;;;18.60;78.14
79316;BME280;68779;50.036;19.964;2023-07-22T04:28:11;101237.63;;;18.45;78.81
79316;BME280;68779;50.036;19.964;2023-07-22T04:58:25;101288.70;;;18.48;81.10
79316;BME280;68779;50.036;19.964;2023-07-22T05:28:39;101304.81;;;19.11;78.35
79316;BME280;68779;50.036;19.964;2023-07-22T05:58:52;101320.78;;;18.63;78.25
79316;BME280;68779;50.036;19.964;2023-07-22T06:29:07;101352.36;;;18.53;79.75
79316;BME280;68779;50.036;19.964;2023-07-22T06:59:20;101366.28;;;20.07;74.16
79316;BME280;68779;50.036;19.964;2023-07-22T08:30:36;101458.95;;;21.17;60.06
79316;BME280;68779;50.036;19.964;2023-07-22T09:00:54;101493.07;;;21.73;59.70
79316;BME280;68779;50.036;19.964;2023-07-22T09:31:08;101498.65;;;22.41;56.74
79316;BME280;68779;50.036;19.964;2023-07-22T10:18:10;101514.67;;;22.86;51.92
79316;BME280;68779;50.036;19.964;2023-07-22T10:48:36;101486.56;;;24.27;46.69
79316;BME280;68779;50.036;19.964;2023-07-22T11:18:50;101481.02;;;25.96;43.89
79316;BME280;68779;50.036;19.964;2023-07-22T11:49:04;101476.64;;;27.09;37.94
79316;BME280;68779;50.036;19.964;2023-07-22T12:19:20;101457.27;;;27.26;39.74
79316;BME280;68779;50.036;19.964;2023-07-22T12:49:40;101445.30;;;28.41;36.70
79316;BME280;68779;50.036;19.964;2023-07-22T14:51:58;101427.30;;;28.37;33.68
79316;BME280;68779;50.036;19.964;2023-07-22T15:22:15;101447.61;;;24.84;37.68
79316;BME280;68779;50.036;19.964;2023-07-22T15:52:33;101427.59;;;26.54;36.61
79316;BME280;68779;50.036;19.964;2023-07-22T16:22:52;101440.45;;;25.26;38.35
79316;BME280;68779;50.036;19.964;2023-07-22T16:53:06;101455.06;;;24.46;40.17
79316;BME280;68779;50.036;19.964;2023-07-22T17:23:21;101474.84;;;24.18;40.30
79316;BME280;68779;50.036;19.964;2023-07-22T17:53:39;101489.39;;;23.88;44.13
79316;BME280;68779;50.036;19.964;2023-07-22T18:23:56;101493.88;;;23.36;45.27
79316;BME280;68779;50.036;19.964;2023-07-22T18:54:13;101518.70;;;22.77;47.18
79316;BME280;68779;50.036;19.964;2023-07-22T19:24:28;101555.02;;;22.20;51.14
79316;BME280;68779;50.036;19.964;2023-07-22T19:54:45;101572.34;;;21.74;53.05
79316;BME280;68779;50.036;19.964;2023-07-22T20:25:01;101597.92;;;21.19;54.90
79316;BME280;68779;50.036;19.964;2023-07-22T20:55:20;101614.95;;;20.43;57.15
79316;BME280;68779;50.036;19.964;2023-07-22T21:25:34;101625.24;;;19.97;59.60
79316;BME280;68779;50.036;19.964;2023-07-22T21:55:49;101647.95;;;19.62;62.06
79316;BME280;68779;50.036;19.964;2023-07-22T22:56:28;101677.24;;;18.54;65.81
79316;BME280;68779;50.036;19.964;2023-07-22T23:57:02;101680.33;;;17.55;69.88
